createdAt,value
2019-05-02T00:02:32.756Z,99948.59
2019-05-02T00:05:04.823Z,99945.27
2019-05-02T00:07:36.232Z,99945.40
2019-05-02T00:10:09.989Z,99940.80
2019-05-02T00:12:41.388Z,99941.30
2019-05-02T00:15:15.471Z,99935.25
2019-05-02T00:17:46.797Z,99937.55
2019-05-02T00:20:21.259Z,99937.28
2019-05-02T00:22:53.446Z,99936.12
2019-05-02T00:25:24.793Z,99929.34
2019-05-02T00:27:56.065Z,99931.20
2019-05-02T00:30:29.935Z,99924.37
2019-05-02T00:33:00.412Z,99926.30
2019-05-02T00:35:31.703Z,99930.29
2019-05-02T00:38:03.908Z,99921.30
2019-05-02T00:40:35.240Z,99919.73
2019-05-02T00:43:06.608Z,99924.33
2019-05-02T00:45:38.020Z,99915.29
2019-05-02T00:48:14.844Z,99926.33
2019-05-02T00:50:50.650Z,99915.95
2019-05-02T00:53:20.928Z,99921.27
2019-05-02T00:55:52.310Z,99913.59
2019-05-02T00:58:27.351Z,99907.30
2019-05-02T01:01:24.292Z,99910.95
2019-05-02T01:03:58.175Z,99909.39
2019-05-02T01:06:29.457Z,99903.02
2019-05-02T01:09:00.746Z,99905.47
2019-05-02T01:11:33.217Z,99909.16
2019-05-02T01:14:04.561Z,99904.92
2019-05-02T01:16:35.978Z,99906.77
2019-05-02T01:19:07.305Z,99898.25
2019-05-02T01:21:40.033Z,99907.56
2019-05-02T01:24:11.392Z,99900.29
2019-05-02T01:26:49.684Z,99905.25
2019-05-02T01:29:35.814Z,99898.50
2019-05-02T01:32:16.762Z,99896.41
2019-05-02T01:34:54.326Z,99890.56
2019-05-02T01:37:51.078Z,99886.70
2019-05-02T01:40:20.927Z,99877.78
2019-05-02T01:42:52.268Z,99876.55
2019-05-02T01:45:23.566Z,99870.48
2019-05-02T01:47:54.908Z,99875.42
2019-05-02T01:50:28.938Z,99872.45
2019-05-02T01:53:00.197Z,99869.16
2019-05-02T01:55:31.487Z,99872.83
2019-05-02T01:58:02.762Z,99877.30
2019-05-02T02:00:34.116Z,99865.94
2019-05-02T02:03:09.136Z,99869.53
2019-05-02T02:05:38.807Z,99867.44
2019-05-02T02:08:10.209Z,99865.86
2019-05-02T02:10:43.817Z,99863.80
2019-05-02T02:13:14.505Z,99862.48
2019-05-02T02:15:45.818Z,99853.38
2019-05-02T02:18:22.113Z,99860.87
2019-05-02T02:21:10.121Z,99862.67
2019-05-02T02:24:06.400Z,99860.19
2019-05-02T02:26:37.717Z,99858.09
2019-05-02T02:29:09.363Z,99855.58
2019-05-02T02:31:46.578Z,99854.72
2019-05-02T02:34:13.714Z,99852.84
2019-05-02T02:36:45.006Z,99848.50
2019-05-02T02:39:17.091Z,99849.30
2019-05-02T02:41:52.232Z,99848.95
2019-05-02T02:44:41.912Z,99851.58
2019-05-02T02:47:18.878Z,99849.37
2019-05-02T02:49:46.357Z,99846.30
2019-05-02T02:52:17.616Z,99853.19
2019-05-02T02:54:48.999Z,99851.39
2019-05-02T02:57:26.318Z,99851.91
2019-05-02T02:59:53.263Z,99857.64
2019-05-02T03:02:24.575Z,99854.02
2019-05-02T03:04:55.914Z,99856.11
2019-05-02T03:07:28.964Z,99852.86
2019-05-02T03:10:06.061Z,99852.75
2019-05-02T03:12:51.410Z,99851.25
2019-05-02T03:15:27.912Z,99846.79
2019-05-02T03:17:59.889Z,99848.81
2019-05-02T03:20:39.914Z,99844.42
2019-05-02T03:23:03.490Z,99839.86
2019-05-02T03:25:49.683Z,99838.80
2019-05-02T03:28:17.727Z,99836.06
2019-05-02T03:30:40.866Z,99835.98
2019-05-02T03:33:12.704Z,99833.74
2019-05-02T03:35:48.935Z,99835.92
2019-05-02T03:38:18.406Z,99833.25
2019-05-02T03:40:49.876Z,99833.55
2019-05-02T03:43:25.765Z,99837.45
2019-05-02T03:45:54.228Z,99834.30
2019-05-02T03:48:27.898Z,99834.67
2019-05-02T03:50:58.557Z,99838.94
2019-05-02T03:53:29.873Z,99833.91
2019-05-02T03:56:10.620Z,99821.16
2019-05-02T03:58:34.239Z,99824.15
2019-05-02T04:01:05.537Z,99816.69
2019-05-02T04:03:40.982Z,99820.47
2019-05-02T04:06:14.082Z,99821.73
2019-05-02T04:08:58.711Z,99821.20
2019-05-02T04:11:25.927Z,99819.21
2019-05-02T04:13:58.089Z,99816.88
2019-05-02T04:16:31.030Z,99811.49
2019-05-02T04:19:06.416Z,99813.96
2019-05-02T04:21:38.438Z,99812.27
2019-05-02T04:24:14.909Z,99806.62
2019-05-02T04:26:53.629Z,99807.93
2019-05-02T04:29:24.462Z,99814.37
2019-05-02T04:31:52.268Z,99816.55
2019-05-02T04:34:23.543Z,99816.88
2019-05-02T04:37:01.299Z,99811.34
2019-05-02T04:39:28.643Z,99810.36
2019-05-02T04:42:05.550Z,99810.20
2019-05-02T04:44:41.146Z,99809.95
2019-05-02T04:47:17.357Z,99807.33
2019-05-02T04:49:39.450Z,99807.17
2019-05-02T04:52:12.184Z,99805.73
2019-05-02T04:54:43.811Z,99806.59
2019-05-02T04:57:15.141Z,99804.75
2019-05-02T04:59:50.063Z,99800.20
2019-05-02T05:02:21.287Z,99795.72
2019-05-02T05:04:52.485Z,99795.27
2019-05-02T05:07:23.795Z,99795.52
2019-05-02T05:09:58.079Z,99791.45
2019-05-02T05:12:32.503Z,99793.45
2019-05-02T05:15:01.109Z,99796.44
2019-05-02T05:17:33.883Z,99802.02
2019-05-02T05:20:13.666Z,99803.79
2019-05-02T05:22:44.130Z,99810.52
2019-05-02T05:25:21.120Z,99809.66
2019-05-02T05:27:52.645Z,99808.42
2019-05-02T05:30:23.038Z,99819.23
2019-05-02T05:32:54.342Z,99814.58
2019-05-02T05:35:27.730Z,99810.02
2019-05-02T05:37:58.685Z,99816.75
2019-05-02T05:40:32.050Z,99819.03
2019-05-02T05:43:12.976Z,99819.67
2019-05-02T05:45:50.302Z,99818.38
2019-05-02T05:48:09.082Z,99816.53
2019-05-02T05:50:41.477Z,99816.45
2019-05-02T05:53:17.387Z,99817.23
2019-05-02T05:55:47.340Z,99818.97
2019-05-02T05:58:18.936Z,99818.05
2019-05-02T06:00:53.762Z,99814.66
2019-05-02T06:03:23.247Z,99812.72
2019-05-02T06:05:54.616Z,99812.81
2019-05-02T06:08:25.908Z,99812.97
2019-05-02T06:10:57.219Z,99813.14
2019-05-02T06:13:28.545Z,99815.36
2019-05-02T06:16:02.542Z,99810.52
2019-05-02T06:18:36.414Z,99813.01
2019-05-02T06:21:08.849Z,99809.02
2019-05-02T06:23:41.398Z,99801.77
2019-05-02T06:26:13.419Z,99806.17
2019-05-02T06:28:44.969Z,99797.50
2019-05-02T06:31:17.161Z,99799.08
2019-05-02T06:33:48.694Z,99793.20
2019-05-02T06:36:19.987Z,99792.36
2019-05-02T06:38:56.152Z,99786.38
2019-05-02T06:41:24.564Z,99789.63
2019-05-02T06:43:55.894Z,99789.55
2019-05-02T06:46:28.031Z,99791.69
2019-05-02T06:49:00.329Z,99795.42
2019-05-02T06:51:31.666Z,99794.64
2019-05-02T06:54:02.949Z,99795.64
2019-05-02T06:56:34.255Z,99786.44
2019-05-02T06:59:05.621Z,99787.94
2019-05-02T07:01:37.034Z,99781.36
2019-05-02T07:04:08.347Z,99785.20
2019-05-02T07:06:50.065Z,99774.41
2019-05-02T07:09:12.961Z,99784.99
2019-05-02T07:11:56.616Z,99780.13
2019-05-02T07:14:18.669Z,99791.89
2019-05-02T07:16:59.821Z,99785.60
2019-05-02T07:19:40.400Z,99784.76
2019-05-02T07:22:11.727Z,99784.53
2019-05-02T07:24:42.967Z,99791.30
2019-05-02T07:27:14.289Z,99793.20
2019-05-02T07:29:45.599Z,99788.41
2019-05-02T07:32:19.183Z,99794.20
2019-05-02T07:34:49.966Z,99801.94
2019-05-02T07:37:21.274Z,99795.81
2019-05-02T07:39:52.578Z,99792.55
2019-05-02T07:42:23.884Z,99799.39
2019-05-02T07:44:55.178Z,99791.30
2019-05-02T07:47:28.728Z,99790.83
2019-05-02T07:49:59.527Z,99799.70
2019-05-02T07:52:33.747Z,99799.38
2019-05-02T07:55:06.587Z,99797.97
2019-05-02T07:57:36.932Z,99795.80
2019-05-02T08:00:09.759Z,99801.05
2019-05-02T08:02:41.076Z,99793.77
2019-05-02T08:05:15.512Z,99798.30
2019-05-02T08:07:45.842Z,99803.81
2019-05-02T08:10:22.182Z,99802.22
2019-05-02T08:12:52.233Z,99799.31
2019-05-02T08:15:24.572Z,99807.89
2019-05-02T08:17:56.529Z,99803.58
2019-05-02T08:20:27.840Z,99803.60
2019-05-02T08:22:59.185Z,99807.61
2019-05-02T08:25:30.541Z,99808.31
2019-05-02T08:28:10.174Z,99806.48
2019-05-02T08:30:44.454Z,99810.34
2019-05-02T08:33:15.760Z,99811.78
2019-05-02T08:35:47.083Z,99812.83
2019-05-02T08:38:19.046Z,99812.80
2019-05-02T08:40:50.508Z,99813.28
2019-05-02T08:43:21.789Z,99820.72
2019-05-02T08:45:53.076Z,99813.22
2019-05-02T08:48:24.386Z,99813.42
2019-05-02T08:50:55.736Z,99813.63
2019-05-02T08:53:27.069Z,99815.03
2019-05-02T08:55:58.366Z,99814.02
2019-05-02T08:58:29.724Z,99816.35
2019-05-02T09:01:01.057Z,99807.53
2019-05-02T09:03:38.870Z,99806.73
2019-05-02T09:06:06.346Z,99806.64
2019-05-02T09:08:37.791Z,99798.73
2019-05-02T09:11:14.233Z,99809.67
2019-05-02T09:13:42.257Z,99804.38
2019-05-02T09:16:13.580Z,99791.84
2019-05-02T09:18:51.925Z,99790.91
2019-05-02T09:21:21.958Z,99785.40
2019-05-02T09:23:53.326Z,99793.13
2019-05-02T09:26:35.026Z,99783.92
2019-05-02T09:29:01.747Z,99794.05
2019-05-02T09:31:32.008Z,99788.56
2019-05-02T09:34:03.842Z,99775.55
2019-05-02T09:36:38.099Z,99784.84
2019-05-02T09:39:09.070Z,99769.52
2019-05-02T09:41:41.908Z,99773.55
2019-05-02T09:44:18.472Z,99767.37
2019-05-02T09:46:47.408Z,99762.75
2019-05-02T09:49:19.407Z,99760.91
2019-05-02T09:51:59.310Z,99749.78
2019-05-02T09:54:23.760Z,99755.07
2019-05-02T09:56:55.094Z,99754.39
2019-05-02T09:59:33.342Z,99753.48
2019-05-02T10:02:06.936Z,99747.83
2019-05-02T10:04:41.348Z,99751.09
2019-05-02T10:07:12.735Z,99745.97
2019-05-02T10:09:44.459Z,99734.28
2019-05-02T10:12:15.790Z,99736.56
2019-05-02T10:14:47.142Z,99722.01
2019-05-02T10:17:18.625Z,99724.16
2019-05-02T10:19:54.984Z,99719.11
2019-05-02T10:22:26.365Z,99720.11
2019-05-02T10:24:56.195Z,99718.16
2019-05-02T10:27:27.493Z,99716.22
2019-05-02T10:30:08.114Z,99705.66
2019-05-02T10:32:32.458Z,99702.52
2019-05-02T10:35:03.818Z,99704.75
2019-05-02T10:37:38.289Z,99695.19
2019-05-02T10:40:13.498Z,99703.94
2019-05-02T10:42:41.998Z,99694.80
2019-05-02T10:45:16.766Z,99699.48
2019-05-02T10:47:46.795Z,99681.86
2019-05-02T10:50:25.903Z,99685.53
2019-05-02T10:52:57.233Z,99682.84
2019-05-02T10:55:28.535Z,99681.31
2019-05-02T10:58:01.889Z,99686.63
2019-05-02T11:00:36.250Z,99684.91
2019-05-02T11:03:13.600Z,99674.16
2019-05-02T11:05:47.066Z,99680.46
2019-05-02T11:08:18.275Z,99670.51
2019-05-02T11:10:49.520Z,99670.63
2019-05-02T11:13:45.650Z,99666.84
2019-05-02T11:16:34.551Z,99667.00
2019-05-02T11:19:15.676Z,99666.42
2019-05-02T11:21:56.274Z,99656.16
2019-05-02T11:24:19.953Z,99650.16
2019-05-02T11:26:52.857Z,99652.63
2019-05-02T11:29:24.260Z,99646.77
2019-05-02T11:31:55.563Z,99643.73
2019-05-02T11:34:26.878Z,99635.67
2019-05-02T11:36:58.187Z,99643.89
2019-05-02T11:39:40.985Z,99641.73
2019-05-02T11:42:02.523Z,99637.27
2019-05-02T11:44:33.828Z,99633.76
2019-05-02T11:47:05.161Z,99631.58
2019-05-02T11:49:36.520Z,99634.07
2019-05-02T11:52:07.903Z,99628.84
2019-05-02T11:54:44.069Z,99629.58
2019-05-02T11:57:12.242Z,99622.53
2019-05-02T11:59:43.558Z,99623.62
2019-05-02T12:02:36.556Z,99631.83
2019-05-02T12:05:12.382Z,99628.23
2019-05-02T12:07:43.614Z,99625.41
2019-05-02T12:10:14.923Z,99614.12
2019-05-02T12:12:46.247Z,99616.52
2019-05-02T12:15:17.526Z,99613.15
2019-05-02T12:17:48.852Z,99609.09
2019-05-02T12:20:20.175Z,99608.05
2019-05-02T12:22:52.810Z,99609.74
2019-05-02T12:25:24.240Z,99600.66
2019-05-02T12:27:55.567Z,99596.81
2019-05-02T12:30:28.904Z,99604.17
2019-05-02T12:32:59.879Z,99595.44
2019-05-02T12:35:32.218Z,99598.67
2019-05-02T12:38:03.654Z,99576.98
2019-05-02T12:40:34.939Z,99583.03
2019-05-02T12:43:06.278Z,99585.53
2019-05-02T12:45:37.565Z,99586.44
2019-05-02T12:48:08.885Z,99581.82
2019-05-02T12:50:41.804Z,99581.56
2019-05-02T12:53:13.259Z,99575.48
2019-05-02T12:55:44.564Z,99577.03
2019-05-02T12:58:15.849Z,99580.80
2019-05-02T13:00:47.103Z,99572.98
2019-05-02T13:03:55.291Z,99574.52
2019-05-02T13:06:26.861Z,99561.05
2019-05-02T13:08:58.192Z,99564.69
2019-05-02T13:11:45.916Z,99571.20
2019-05-02T13:14:20.110Z,99553.94
2019-05-02T13:16:53.533Z,99550.84
2019-05-02T13:19:37.261Z,99551.59
2019-05-02T13:22:17.303Z,99547.75
2019-05-02T13:24:56.230Z,99544.92
2019-05-02T13:27:32.223Z,99543.80
2019-05-02T13:30:03.205Z,99541.77
2019-05-02T13:32:47.986Z,99541.92
2019-05-02T13:35:31.623Z,99535.91
2019-05-02T13:38:03.883Z,99531.42
2019-05-02T13:40:44.110Z,99521.41
2019-05-02T13:43:15.606Z,99518.11
2019-05-02T13:46:22.147Z,99518.78
2019-05-02T13:48:53.632Z,99517.09
2019-05-02T13:51:25.050Z,99506.19
2019-05-02T13:53:59.027Z,99499.05
2019-05-02T13:56:49.259Z,99500.61
2019-05-02T13:59:22.497Z,99501.31
2019-05-02T14:01:56.563Z,99494.20
2019-05-02T14:04:27.887Z,99496.46
2019-05-02T14:06:59.168Z,99491.48
2019-05-02T14:09:52.699Z,99491.83
2019-05-02T14:12:28.706Z,99496.03
2019-05-02T14:15:00.012Z,99488.28
2019-05-02T14:17:32.659Z,99487.88
2019-05-02T14:20:10.762Z,99483.05
2019-05-02T14:22:37.158Z,99481.33
2019-05-02T14:25:09.010Z,99485.45
2019-05-02T14:27:42.222Z,99486.04
2019-05-02T14:30:14.037Z,99487.30
2019-05-02T14:32:45.351Z,99487.80
2019-05-02T14:35:42.617Z,99486.95
2019-05-02T14:38:14.841Z,99483.23
2019-05-02T14:41:03.282Z,99486.05
2019-05-02T14:43:54.097Z,99492.94
2019-05-02T14:46:35.576Z,99485.31
2019-05-02T14:49:00.018Z,99494.98
2019-05-02T14:51:33.094Z,99491.34
2019-05-02T14:54:08.228Z,99492.27
2019-05-02T14:56:48.596Z,99491.30
2019-05-02T14:59:20.259Z,99495.16
2019-05-02T15:01:57.916Z,99504.55
2019-05-02T15:04:29.115Z,99500.63
2019-05-02T15:07:02.102Z,99499.64
2019-05-02T15:09:36.150Z,99504.44
2019-05-02T15:12:13.931Z,99499.23
2019-05-02T15:14:39.656Z,99497.86
2019-05-02T15:17:12.075Z,99493.27
2019-05-02T15:19:43.472Z,99495.02
2019-05-02T15:22:14.751Z,99493.95
2019-05-02T15:24:46.134Z,99490.58
2019-05-02T15:27:17.958Z,99491.17
2019-05-02T15:29:53.968Z,99491.77
2019-05-02T15:32:44.952Z,99485.48
2019-05-02T15:35:31.789Z,99487.11
2019-05-02T15:38:06.738Z,99487.31
2019-05-02T15:40:48.057Z,99482.48
2019-05-02T15:43:09.927Z,99479.36
2019-05-02T15:45:44.121Z,99482.41
2019-05-02T15:48:25.573Z,99478.42
2019-05-02T15:50:53.078Z,99471.42
2019-05-02T15:53:39.025Z,99471.42
2019-05-02T15:56:18.707Z,99464.45
2019-05-02T15:58:42.560Z,99471.47
2019-05-02T16:01:24.703Z,99466.89
2019-05-02T16:03:56.793Z,99464.15
2019-05-02T16:06:31.645Z,99464.41
2019-05-02T16:09:02.422Z,99460.93
2019-05-02T16:11:33.864Z,99459.95
2019-05-02T16:14:05.280Z,99454.48
2019-05-02T16:16:40.837Z,99455.69
2019-05-02T16:19:14.722Z,99462.78
2019-05-02T16:21:52.001Z,99465.18
2019-05-02T16:24:24.095Z,99461.41
2019-05-02T16:26:57.130Z,99467.37
2019-05-02T16:29:29.116Z,99469.59
2019-05-02T16:32:07.744Z,99463.36
2019-05-02T16:34:59.750Z,99494.33
2019-05-02T16:37:32.479Z,99492.05
2019-05-02T16:40:04.615Z,99501.93
2019-05-02T16:42:36.097Z,99508.66
2019-05-02T16:45:11.751Z,99502.83
2019-05-02T16:47:43.111Z,99501.85
2019-05-02T16:50:14.770Z,99503.88
2019-05-02T16:52:47.482Z,99500.91
2019-05-02T16:55:24.827Z,99503.30
2019-05-02T16:57:56.864Z,99500.96
2019-05-02T17:00:26.600Z,99503.88
2019-05-02T17:02:57.965Z,99503.16
2019-05-02T17:05:29.270Z,99501.56
2019-05-02T17:08:20.180Z,99497.83
2019-05-02T17:11:05.588Z,99495.77
2019-05-02T17:13:36.896Z,99506.13
2019-05-02T17:16:12.967Z,99501.26
2019-05-02T17:18:43.281Z,99498.26
2019-05-02T17:21:14.484Z,99495.62
2019-05-02T17:23:50.419Z,99496.83
2019-05-02T17:26:22.846Z,99496.83
2019-05-02T17:28:54.206Z,99500.33
2019-05-02T17:31:25.533Z,99509.93
2019-05-02T17:33:56.857Z,99507.20
2019-05-02T17:36:28.986Z,99511.06
2019-05-02T17:39:06.326Z,99511.23
2019-05-02T17:41:37.010Z,99509.73
2019-05-02T17:44:07.474Z,99511.17
2019-05-02T17:46:39.304Z,99519.56
2019-05-02T17:49:11.932Z,99517.78
2019-05-02T17:52:06.055Z,99518.60
2019-05-02T17:54:38.291Z,99521.35
2019-05-02T17:57:11.742Z,99518.24
2019-05-02T17:59:42.841Z,99521.54
2019-05-02T18:02:15.851Z,99515.81
2019-05-02T18:04:52.176Z,99520.06
2019-05-02T18:07:25.045Z,99521.88
2019-05-02T18:09:53.249Z,99521.88
2019-05-02T18:12:24.567Z,99524.08
2019-05-02T18:14:58.937Z,99516.45
2019-05-02T18:17:29.182Z,99517.77
2019-05-02T18:20:02.235Z,99521.22
2019-05-02T18:22:34.816Z,99515.31
2019-05-02T18:25:06.831Z,99522.95
2019-05-02T18:27:38.212Z,99520.52
2019-05-02T18:30:12.776Z,99518.82
2019-05-02T18:32:44.218Z,99526.00
2019-05-02T18:35:15.624Z,99518.25
2019-05-02T18:37:47.049Z,99516.47
2019-05-02T18:40:20.193Z,99524.22
2019-05-02T18:42:52.049Z,99525.46
2019-05-02T18:45:28.564Z,99527.07
2019-05-02T18:48:02.132Z,99527.43
2019-05-02T18:50:41.861Z,99524.43
2019-05-02T18:53:11.277Z,99521.79
2019-05-02T18:55:42.769Z,99530.74
2019-05-02T18:58:14.105Z,99535.27
2019-05-02T19:00:45.446Z,99533.45
2019-05-02T19:03:17.736Z,99531.03
2019-05-02T19:05:51.579Z,99539.30
2019-05-02T19:08:29.046Z,99541.30
2019-05-02T19:11:04.709Z,99537.98
2019-05-02T19:13:29.913Z,99542.70
2019-05-02T19:16:02.056Z,99545.92
2019-05-02T19:18:37.014Z,99547.71
2019-05-02T19:21:08.871Z,99548.46
2019-05-02T19:23:42.287Z,99548.56
2019-05-02T19:26:15.375Z,99550.70
2019-05-02T19:29:03.616Z,99552.37
2019-05-02T19:31:46.653Z,99543.61
2019-05-02T19:34:22.947Z,99550.45
2019-05-02T19:36:52.834Z,99552.20
2019-05-02T19:39:25.835Z,99558.33
2019-05-02T19:41:57.170Z,99551.73
2019-05-02T19:44:29.838Z,99557.52
2019-05-02T19:47:02.535Z,99557.86
2019-05-02T19:49:34.021Z,99553.09
2019-05-02T19:52:05.524Z,99553.70
2019-05-02T19:54:39.263Z,99554.88
2019-05-02T19:57:11.697Z,99553.63
2019-05-02T19:59:43.188Z,99559.69
2019-05-02T20:02:14.447Z,99559.30
2019-05-02T20:04:45.807Z,99562.58
2019-05-02T20:07:17.207Z,99558.34
2019-05-02T20:09:48.536Z,99559.67
2019-05-02T20:12:21.922Z,99561.09
2019-05-02T20:14:53.463Z,99562.05
2019-05-02T20:17:24.827Z,99557.81
2019-05-02T20:20:05.477Z,99565.52
2019-05-02T20:22:31.658Z,99559.20
2019-05-02T20:25:03.820Z,99554.88
2019-05-02T20:27:35.321Z,99563.53
2019-05-02T20:30:07.605Z,99565.13
2019-05-02T20:32:38.901Z,99566.48
2019-05-02T20:35:11.939Z,99577.39
2019-05-02T20:37:43.389Z,99574.39
2019-05-02T20:40:29.130Z,99579.73
2019-05-02T20:43:02.423Z,99573.70
2019-05-02T20:45:33.599Z,99584.78
2019-05-02T20:48:05.381Z,99588.66
2019-05-02T20:50:36.845Z,99589.22
2019-05-02T20:53:08.321Z,99588.19
2019-05-02T20:55:41.569Z,99593.89
2019-05-02T20:58:12.764Z,99596.63
2019-05-02T21:00:46.446Z,99595.53
2019-05-02T21:03:17.939Z,99598.08
2019-05-02T21:06:12.222Z,99603.13
2019-05-02T21:09:02.050Z,99600.75
2019-05-02T21:11:33.193Z,99605.63
2019-05-02T21:14:05.070Z,99615.47
2019-05-02T21:16:36.411Z,99613.39
2019-05-02T21:19:07.822Z,99606.66
2019-05-02T21:21:40.750Z,99612.28
2019-05-02T21:24:12.930Z,99615.73
2019-05-02T21:26:44.290Z,99610.32
2019-05-02T21:29:15.646Z,99616.80
2019-05-02T21:31:47.079Z,99619.08
2019-05-02T21:34:18.453Z,99616.27
2019-05-02T21:36:51.740Z,99624.17
2019-05-02T21:39:22.876Z,99627.36
2019-05-02T21:41:54.302Z,99631.09
2019-05-02T21:44:25.693Z,99634.11
2019-05-02T21:46:57.032Z,99638.79
2019-05-02T21:49:43.013Z,99640.41
2019-05-02T21:52:31.954Z,99640.28
2019-05-02T21:55:13.574Z,99647.93
2019-05-02T21:57:44.950Z,99644.99
2019-05-02T22:00:47.875Z,99647.00
2019-05-02T22:03:19.450Z,99656.20
2019-05-02T22:05:50.856Z,99655.75
2019-05-02T22:08:22.271Z,99656.70
2019-05-02T22:10:53.577Z,99661.80
2019-05-02T22:13:24.865Z,99656.63
2019-05-02T22:15:56.301Z,99662.35
2019-05-02T22:18:27.669Z,99659.01
2019-05-02T22:20:58.944Z,99653.70
2019-05-02T22:23:31.807Z,99657.02
2019-05-02T22:26:04.312Z,99654.62
2019-05-02T22:28:35.654Z,99657.94
2019-05-02T22:31:06.923Z,99655.48
2019-05-02T22:33:38.240Z,99655.08
2019-05-02T22:36:09.557Z,99647.50
2019-05-02T22:38:49.384Z,99655.30
2019-05-02T22:41:22.115Z,99659.88
2019-05-02T22:43:53.648Z,99665.73
2019-05-02T22:46:44.189Z,99663.64
2019-05-02T22:49:16.282Z,99671.98
2019-05-02T22:51:47.638Z,99678.72
2019-05-02T22:54:27.893Z,99680.49
2019-05-02T22:56:52.271Z,99685.12
2019-05-02T22:59:24.005Z,99677.09
2019-05-02T23:01:55.447Z,99682.27
2019-05-02T23:04:26.774Z,99686.48
2019-05-02T23:06:58.176Z,99681.22
2019-05-02T23:09:29.460Z,99683.77
2019-05-02T23:12:02.928Z,99690.11
2019-05-02T23:14:34.142Z,99684.08
2019-05-02T23:17:05.522Z,99685.53
2019-05-02T23:19:36.822Z,99684.22
2019-05-02T23:22:09.165Z,99689.94
2019-05-02T23:24:59.420Z,99696.77
2019-05-02T23:27:42.261Z,99699.40
2019-05-02T23:30:17.190Z,99693.83
2019-05-02T23:32:48.573Z,99694.69
2019-05-02T23:35:19.981Z,99700.00
2019-05-02T23:37:52.952Z,99697.83
2019-05-02T23:40:24.523Z,99698.23
2019-05-02T23:42:55.814Z,99702.08
2019-05-02T23:45:27.126Z,99702.48
2019-05-02T23:47:58.440Z,99706.20
2019-05-02T23:50:29.765Z,99711.01
2019-05-02T23:53:02.286Z,99709.60
2019-05-02T23:55:33.765Z,99704.34
2019-05-02T23:58:05.133Z,99702.09
